Time;durP1;ratioP1;P1;durP2;ratioP2;P2;SDS_P1;SDS_P2;PMS_P1;PMS_P2;Temp;Humidity;BMP_temperature;BMP_pressure;BME280_temperature;BME280_humidity;BME280_pressure;Samples;Min_cycle;Max_cycle;Signal;HPM_P1;HPM_P2
2023/07/07 04:31:00;;;;;;;6.30;3.10;;;16.10;68.80;;;;;;5603039;23;20049;-86
2023/07/07 04:33:27;;;;;;;7.10;3.42;;;16.10;69.30;;;;;;4875723;29;20021;-86
2023/07/07 04:35:58;;;;;;;6.65;3.50;;;16.20;69.30;;;;;;4879691;29;20100;-86
2023/07/07 04:38:30;;;;;;;7.00;3.50;;;16.30;69.20;;;;;;4877972;29;20120;-84
2023/07/07 04:41:08;;;;;;;5.40;2.80;;;16.20;69.10;;;;;;4878706;29;20044;-84
2023/07/07 04:43:35;;;;;;;6.40;2.92;;;16.30;68.70;;;;;;4878636;29;20040;-84
2023/07/07 04:46:02;;;;;;;8.23;3.28;;;16.30;68.90;;;;;;4867530;29;20066;-82
2023/07/07 04:48:28;;;;;;;6.07;3.33;;;16.30;68.70;;;;;;4864460;29;20028;-89
2023/07/07 04:51:06;;;;;;;7.43;3.40;;;16.30;68.70;;;;;;4879913;29;20036;-81
2023/07/07 04:53:32;;;;;;;5.85;3.08;;;16.30;68.30;;;;;;4890207;29;20024;-83
2023/07/07 04:55:59;;;;;;;7.15;3.00;;;16.30;68.90;;;;;;4895446;29;20033;-85
2023/07/07 04:58:26;;;;;;;7.10;3.08;;;16.20;69.30;;;;;;4881418;29;20123;-88
2023/07/07 05:00:53;;;;;;;5.93;2.78;;;16.20;69.20;;;;;;4887684;29;20114;-85
2023/07/07 05:03:19;;;;;;;6.85;2.85;;;16.20;69.80;;;;;;4875193;29;20025;-88
2023/07/07 05:05:44;;;;;;;5.43;3.00;;;16.20;69.30;;;;;;4875673;29;20065;-86
2023/07/07 05:08:10;;;;;;;9.18;3.42;;;16.20;69.70;;;;;;4897647;29;20020;-85
2023/07/07 05:10:36;;;;;;;6.47;2.83;;;16.10;69.80;;;;;;4897620;29;20033;-88
2023/07/07 05:13:01;;;;;;;6.72;3.15;;;16.10;70.90;;;;;;4883532;29;20036;-87
2023/07/07 05:15:27;;;;;;;6.07;2.85;;;16.10;71.60;;;;;;4883311;29;20033;-88
2023/07/07 05:17:53;;;;;;;5.80;3.00;;;16.20;71.10;;;;;;4882552;29;20040;-87
2023/07/07 05:20:19;;;;;;;5.97;2.97;;;16.20;70.60;;;;;;4895886;29;20029;-90
2023/07/07 05:22:44;;;;;;;8.60;3.15;;;16.20;70.60;;;;;;4884999;29;20795;-82
2023/07/07 05:25:10;;;;;;;6.07;2.80;;;16.20;71.20;;;;;;4879904;29;20064;-82
2023/07/07 05:27:35;;;;;;;5.90;2.90;;;16.30;71.60;;;;;;4897679;29;20578;-83
2023/07/07 05:30:01;;;;;;;7.03;3.30;;;16.20;71.30;;;;;;4879874;29;20514;-83
2023/07/07 05:32:27;;;;;;;6.13;2.85;;;16.30;71.20;;;;;;4882462;29;20155;-83
2023/07/07 05:34:52;;;;;;;6.03;2.92;;;16.30;72.10;;;;;;4893449;29;20029;-84
2023/07/07 05:37:18;;;;;;;6.00;3.00;;;16.30;71.70;;;;;;4894003;29;20406;-82
2023/07/07 05:39:48;;;;;;;6.68;3.13;;;16.30;72.10;;;;;;4901491;29;20036;-86
2023/07/07 05:42:13;;;;;;;5.80;2.97;;;16.40;71.90;;;;;;4901557;29;20020;-86
2023/07/07 05:44:39;;;;;;;5.82;3.50;;;16.50;71.50;;;;;;4883907;29;20040;-83
2023/07/07 05:47:05;;;;;;;8.23;3.53;;;16.50;71.90;;;;;;4882289;29;20029;-82
2023/07/07 05:49:30;;;;;;;8.25;3.50;;;16.60;71.30;;;;;;4882485;29;20499;-83
2023/07/07 05:51:56;;;;;;;8.15;3.63;;;16.70;71.30;;;;;;4895884;29;20051;-83
2023/07/07 05:54:22;;;;;;;7.35;3.63;;;16.70;71.60;;;;;;4900505;29;20037;-83
2023/07/07 05:56:49;;;;;;;6.88;3.40;;;16.80;71.30;;;;;;4899596;29;20040;-83
2023/07/07 05:59:15;;;;;;;11.52;4.10;;;16.80;71.30;;;;;;4898772;29;20043;-83
2023/07/07 06:01:41;;;;;;;8.73;3.58;;;16.80;72.10;;;;;;4894168;29;20107;-83
2023/07/07 06:04:06;;;;;;;6.35;3.42;;;16.90;71.20;;;;;;4906634;29;20373;-83
2023/07/07 06:06:32;;;;;;;8.32;4.15;;;17.00;70.80;;;;;;4891242;29;20087;-82
2023/07/07 06:08:57;;;;;;;6.50;3.05;;;17.10;70.60;;;;;;4882724;29;20571;-84
2023/07/07 06:11:23;;;;;;;8.13;3.75;;;17.10;70.30;;;;;;4893448;29;20040;-83
2023/07/07 06:13:49;;;;;;;6.65;3.40;;;17.20;70.50;;;;;;4883169;29;20032;-83
2023/07/07 06:16:16;;;;;;;6.40;3.65;;;17.20;71.50;;;;;;4894254;29;20127;-83
2023/07/07 06:18:42;;;;;;;6.28;3.47;;;17.30;70.10;;;;;;4880511;29;20040;-83
2023/07/07 06:21:07;;;;;;;7.28;3.42;;;17.40;70.30;;;;;;4881398;29;20501;-83
2023/07/07 06:23:33;;;;;;;6.75;3.35;;;17.40;70.20;;;;;;4881531;29;20488;-83
2023/07/07 06:25:59;;;;;;;6.20;3.42;;;17.40;70.50;;;;;;4882040;29;20041;-83
2023/07/07 06:28:25;;;;;;;7.40;3.60;;;17.50;69.80;;;;;;4864698;29;20077;-83
2023/07/07 06:30:52;;;;;;;6.78;3.35;;;17.60;70.00;;;;;;4880694;29;20072;-83
2023/07/07 06:33:18;;;;;;;5.82;3.10;;;17.60;70.80;;;;;;4883310;29;20032;-83
2023/07/07 06:35:44;;;;;;;6.25;2.70;;;17.70;70.00;;;;;;4885227;29;20515;-83
2023/07/07 06:38:10;;;;;;;5.30;2.97;;;17.80;69.70;;;;;;4890556;29;20028;-83
2023/07/07 06:40:35;;;;;;;5.20;2.90;;;17.90;69.90;;;;;;4878365;29;20049;-83
2023/07/07 06:43:04;;;;;;;6.20;3.10;;;17.90;69.60;;;;;;4878199;29;20036;-82
2023/07/07 06:45:31;;;;;;;6.63;2.85;;;18.00;69.60;;;;;;4895369;29;20115;-83
2023/07/07 06:47:57;;;;;;;4.90;2.78;;;18.10;69.00;;;;;;4899481;29;20464;-82
2023/07/07 06:50:35;;;;;;;6.35;2.88;;;18.20;68.60;;;;;;4895964;29;20037;-82
2023/07/07 06:53:01;;;;;;;5.22;2.55;;;18.30;68.20;;;;;;4894986;29;20107;-83
2023/07/07 06:55:27;;;;;;;6.72;2.90;;;18.30;67.90;;;;;;4880084;29;20059;-81
2023/07/07 06:57:52;;;;;;;11.80;3.03;;;18.50;67.00;;;;;;4899076;29;20776;-80
2023/07/07 07:00:19;;;;;;;6.40;3.25;;;18.60;67.40;;;;;;4879588;29;20123;-83
2023/07/07 07:02:44;;;;;;;7.68;3.50;;;18.70;66.90;;;;;;4876181;29;20029;-82
2023/07/07 07:05:10;;;;;;;5.38;3.05;;;18.80;67.30;;;;;;4877639;29;20101;-84
2023/07/07 07:07:36;;;;;;;6.32;3.30;;;18.90;67.00;;;;;;4896694;29;20032;-82
2023/07/07 07:10:03;;;;;;;5.38;2.83;;;19.00;66.40;;;;;;4896661;29;20037;-83
2023/07/07 07:12:29;;;;;;;6.85;2.72;;;19.00;65.70;;;;;;4883012;29;20028;-84
2023/07/07 07:14:55;;;;;;;6.28;2.67;;;19.10;65.70;;;;;;4890433;29;20032;-82
2023/07/07 07:17:22;;;;;;;6.05;3.00;;;19.20;65.70;;;;;;4883732;29;20452;-83
2023/07/07 07:19:48;;;;;;;8.35;2.97;;;19.30;65.20;;;;;;4876758;29;20040;-82
2023/07/07 07:22:14;;;;;;;7.68;3.13;;;19.40;63.50;;;;;;4900021;29;20888;-77
2023/07/07 07:24:39;;;;;;;6.57;2.72;;;19.60;62.70;;;;;;4879960;29;20510;-80
2023/07/07 07:27:05;;;;;;;5.05;2.97;;;19.70;63.00;;;;;;4892724;29;20043;-80
2023/07/07 07:29:31;;;;;;;5.88;3.17;;;19.80;62.60;;;;;;4895724;29;20028;-78
2023/07/07 07:31:57;;;;;;;7.55;3.40;;;19.90;62.90;;;;;;4876320;29;20060;-82
2023/07/07 07:34:32;;;;;;;6.07;2.85;;;20.20;62.70;;;;;;4891556;29;20140;-82
2023/07/07 07:37:00;;;;;;;6.60;3.17;;;20.60;61.20;;;;;;4897265;29;20031;-80
2023/07/07 07:39:27;;;;;;;10.70;3.20;;;21.50;59.80;;;;;;4903510;29;20115;-81
2023/07/07 07:41:54;;;;;;;6.10;2.92;;;22.80;56.90;;;;;;4902967;29;20495;-80
2023/07/07 07:44:21;;;;;;;5.93;3.28;;;24.00;53.20;;;;;;4892441;29;20037;-81
2023/07/07 07:46:48;;;;;;;5.40;3.33;;;25.40;49.80;;;;;;4901818;29;20024;-81
2023/07/07 07:49:14;;;;;;;6.00;2.95;;;26.90;46.90;;;;;;4903775;29;20055;-85
2023/07/07 07:51:41;;;;;;;6.60;3.60;;;28.60;42.20;;;;;;4892126;29;20666;-82
2023/07/07 07:54:08;;;;;;;5.75;3.17;;;30.30;39.30;;;;;;4886493;29;20036;-83
2023/07/07 07:56:35;;;;;;;5.95;3.58;;;32.40;35.60;;;;;;4900323;29;20041;-92
2023/07/07 07:59:01;;;;;;;7.50;3.60;;;34.00;32.90;;;;;;4889668;29;20037;-89
2023/07/07 08:01:26;;;;;;;5.43;3.58;;;34.90;31.30;;;;;;4903520;29;20040;-83
2023/07/07 08:03:52;;;;;;;6.13;3.60;;;35.70;29.90;;;;;;4901004;29;20558;-86
2023/07/07 08:06:18;;;;;;;5.70;3.55;;;36.50;28.40;;;;;;4894876;29;20021;-90
2023/07/07 08:08:43;;;;;;;5.88;3.80;;;37.40;28.30;;;;;;4899277;29;20510;-91
2023/07/07 08:11:15;;;;;;;5.10;3.65;;;38.00;27.10;;;;;;4899473;29;20060;-92
2023/07/07 08:13:40;;;;;;;5.65;3.83;;;38.20;25.10;;;;;;4879548;29;20036;-91
2023/07/07 08:16:10;;;;;;;6.82;3.78;;;38.30;26.10;;;;;;4895965;29;20024;-92
2023/07/07 08:18:36;;;;;;;4.88;3.47;;;38.50;25.10;;;;;;4885137;29;20027;-92
2023/07/07 08:21:02;;;;;;;5.57;3.65;;;38.40;24.80;;;;;;4891590;29;20061;-92
2023/07/07 08:23:28;;;;;;;5.13;3.78;;;38.70;24.70;;;;;;4867592;29;20093;-92
2023/07/07 08:25:53;;;;;;;6.13;4.20;;;39.00;23.80;;;;;;4891148;29;20555;-91
2023/07/07 08:28:19;;;;;;;5.63;4.38;;;39.30;24.70;;;;;;4884487;29;20116;-93
2023/07/07 08:30:45;;;;;;;5.30;3.85;;;39.70;22.10;;;;;;4882612;29;20061;-93
2023/07/07 08:33:10;;;;;;;6.75;4.07;;;39.10;22.60;;;;;;4886864;29;20147;-93
2023/07/07 08:35:36;;;;;;;9.90;4.30;;;38.50;22.90;;;;;;4885654;29;20037;-93
2023/07/07 08:38:02;;;;;;;6.65;4.22;;;38.80;23.80;;;;;;4903905;29;20032;-93
2023/07/07 08:40:35;;;;;;;5.50;4.13;;;39.00;22.40;;;;;;4885197;29;20514;-92
2023/07/07 08:43:01;;;;;;;6.53;4.25;;;39.20;23.80;;;;;;4880131;29;20052;-93
2023/07/07 08:45:28;;;;;;;6.55;3.95;;;39.00;22.30;;;;;;4884485;29;20036;-93
2023/07/07 08:48:32;;;;;;;6.80;4.35;;;39.00;23.50;;;;;;4901944;29;20501;-94
2023/07/07 08:51:06;;;;;;;6.93;4.53;;;39.00;22.70;;;;;;4885454;29;20112;-93
2023/07/07 08:53:44;;;;;;;7.68;4.72;;;39.10;23.50;;;;;;4885606;29;20441;-92
2023/07/07 08:56:34;;;;;;;7.45;4.53;;;39.20;24.40;;;;;;4906899;29;20032;-93
2023/07/07 08:59:20;;;;;;;5.10;4.33;;;38.80;23.10;;;;;;4882280;29;20116;-93
2023/07/07 09:02:04;;;;;;;6.68;4.60;;;39.20;24.80;;;;;;4883075;29;20031;-93
2023/07/07 09:04:50;;;;;;;5.75;4.50;;;39.30;23.50;;;;;;4883447;29;20029;-93
2023/07/07 09:07:21;;;;;;;7.03;4.75;;;39.50;23.80;;;;;;4884221;29;20048;-93
2023/07/07 09:09:56;;;;;;;6.65;4.38;;;39.60;22.20;;;;;;4878594;29;20029;-93
2023/07/07 09:12:42;;;;;;;6.63;5.10;;;39.80;22.90;;;;;;4868545;29;20053;-92
2023/07/07 09:15:25;;;;;;;5.95;5.10;;;40.10;22.60;;;;;;4872452;29;20137;-93
2023/07/07 09:17:58;;;;;;;6.25;5.35;;;40.40;22.10;;;;;;4884336;29;20042;-92
2023/07/07 09:20:26;;;;;;;7.80;4.70;;;40.40;22.70;;;;;;4903568;29;20034;-93
2023/07/07 09:22:57;;;;;;;7.07;5.25;;;40.40;22.10;;;;;;4884629;29;20056;-93
2023/07/07 09:25:31;;;;;;;7.10;5.25;;;39.90;21.80;;;;;;4886145;29;20499;-93
2023/07/07 09:28:01;;;;;;;7.20;4.90;;;39.50;22.20;;;;;;4886331;29;20040;-93
2023/07/07 09:30:39;;;;;;;6.13;5.22;;;39.30;22.50;;;;;;4903233;29;20047;-93
2023/07/07 09:33:04;;;;;;;7.10;4.72;;;39.50;22.80;;;;;;4901763;29;20032;-92
2023/07/07 09:35:46;;;;;;;7.00;5.03;;;39.40;22.60;;;;;;4886337;29;20491;-93
2023/07/07 09:38:37;;;;;;;5.82;4.80;;;39.60;22.20;;;;;;4886248;29;20076;-93
2023/07/07 09:41:31;;;;;;;7.22;5.40;;;39.80;22.60;;;;;;4898143;29;20033;-93
2023/07/07 09:44:29;;;;;;;6.00;4.82;;;39.90;22.90;;;;;;4899318;29;20020;-92
2023/07/07 09:47:05;;;;;;;5.63;4.55;;;39.80;22.10;;;;;;4881720;29;20063;-92
2023/07/07 09:49:43;;;;;;;7.38;5.60;;;39.80;22.50;;;;;;4880134;29;20391;-92
2023/07/07 09:52:24;;;;;;;4.80;3.45;;;39.50;21.40;;;;;;4885064;29;20029;-92
2023/07/07 09:54:51;;;;;;;5.45;3.40;;;39.40;21.90;;;;;;4885000;29;20020;-92
2023/07/07 09:57:39;;;;;;;8.57;7.88;;;39.70;22.80;;;;;;4883180;29;20043;-91
2023/07/07 10:00:05;;;;;;;6.63;4.82;;;39.60;22.50;;;;;;4883582;29;20614;-94
2023/07/07 10:02:31;;;;;;;5.85;4.03;;;39.60;21.80;;;;;;4879631;29;20040;-92
2023/07/07 10:05:04;;;;;;;5.80;3.72;;;38.80;22.00;;;;;;4881534;29;20053;-94
2023/07/07 10:07:36;;;;;;;5.65;3.75;;;38.60;23.70;;;;;;4885420;29;20476;-94
2023/07/07 10:10:03;;;;;;;5.38;4.00;;;38.40;23.40;;;;;;4882975;29;20031;-91
2023/07/07 10:12:29;;;;;;;5.10;3.60;;;38.60;23.80;;;;;;4902574;29;20088;-93
2023/07/07 10:14:55;;;;;;;7.78;4.30;;;38.50;24.00;;;;;;4882793;29;20037;-93
2023/07/07 10:17:53;;;;;;;8.98;4.00;;;38.60;23.60;;;;;;4885022;29;20040;-93
2023/07/07 10:20:18;;;;;;;6.68;4.30;;;38.70;24.10;;;;;;4878344;29;20041;-93
2023/07/07 10:22:44;;;;;;;6.15;4.30;;;38.60;24.60;;;;;;4882564;29;20032;-92
2023/07/07 10:25:14;;;;;;;6.35;4.30;;;38.70;25.10;;;;;;4882265;29;20035;-92
2023/07/07 10:27:51;;;;;;;5.97;4.00;;;38.50;24.00;;;;;;4884975;29;20419;-92
2023/07/07 10:30:17;;;;;;;5.43;4.22;;;38.50;25.00;;;;;;4881821;29;20056;-86
2023/07/07 10:32:43;;;;;;;6.60;3.85;;;38.30;24.90;;;;;;4884656;29;20036;-84
2023/07/07 10:35:16;;;;;;;6.13;4.03;;;38.20;24.90;;;;;;4901548;29;20024;-89
2023/07/07 10:37:46;;;;;;;6.72;4.25;;;37.80;25.80;;;;;;4893377;29;20060;-91
2023/07/07 10:40:25;;;;;;;6.40;3.70;;;37.20;25.80;;;;;;4904253;29;20083;-82
2023/07/07 10:42:54;;;;;;;5.72;3.70;;;36.70;26.10;;;;;;4900944;29;20037;-76
2023/07/07 10:45:21;;;;;;;7.53;3.83;;;36.30;26.30;;;;;;4896764;29;20099;-76
2023/07/07 10:47:47;;;;;;;5.20;3.38;;;35.60;27.10;;;;;;4877404;29;20051;-76
2023/07/07 10:50:16;;;;;;;8.75;3.58;;;34.90;28.80;;;;;;4883898;29;20025;-79
2023/07/07 10:53:05;;;;;;;6.60;3.75;;;34.30;28.50;;;;;;4892142;29;20031;-75
2023/07/07 10:55:43;;;;;;;6.43;3.80;;;33.90;30.10;;;;;;4876850;29;20043;-74
2023/07/07 10:58:34;;;;;;;5.75;3.35;;;33.50;32.50;;;;;;4882689;29;20036;-74
2023/07/07 11:01:25;;;;;;;6.07;3.23;;;33.40;32.00;;;;;;4894090;29;20051;-74
2023/07/07 11:04:04;;;;;;;7.67;3.70;;;33.30;31.60;;;;;;4881738;29;20033;-75
2023/07/07 11:06:59;;;;;;;7.88;3.85;;;32.90;31.90;;;;;;4891160;29;20451;-76
2023/07/07 11:09:31;;;;;;;6.95;3.42;;;32.80;33.00;;;;;;4884671;29;20045;-78
2023/07/07 11:12:16;;;;;;;7.72;3.75;;;32.70;33.80;;;;;;4896892;29;20028;-77
2023/07/07 11:15:12;;;;;;;7.40;3.50;;;32.70;33.40;;;;;;4902748;29;20487;-76
2023/07/07 11:17:43;;;;;;;6.65;3.63;;;32.80;33.40;;;;;;4891987;29;20129;-77
2023/07/07 11:20:31;;;;;;;9.00;3.47;;;32.70;34.80;;;;;;4903263;29;20036;-77
2023/07/07 11:23:23;;;;;;;8.35;3.85;;;32.70;33.70;;;;;;4885705;29;20159;-77
2023/07/07 11:26:03;;;;;;;7.55;3.58;;;32.30;34.50;;;;;;4885104;29;20389;-77
2023/07/07 11:28:55;;;;;;;6.07;3.65;;;32.20;34.60;;;;;;4900538;29;20036;-77
2023/07/07 11:31:45;;;;;;;9.90;3.80;;;32.20;35.80;;;;;;4886758;29;20048;-78
2023/07/07 11:34:43;;;;;;;6.85;3.88;;;32.20;36.00;;;;;;4903377;29;20100;-79
2023/07/07 11:37:35;;;;;;;7.78;3.30;;;32.10;35.70;;;;;;4869177;29;20096;-77
2023/07/07 11:40:28;;;;;;;5.60;3.00;;;32.10;35.40;;;;;;4882161;29;20044;-77
2023/07/07 11:43:31;;;;;;;7.72;3.58;;;32.00;36.00;;;;;;4899601;29;20037;-77
2023/07/07 11:46:14;;;;;;;7.43;3.70;;;32.20;35.60;;;;;;4902260;29;20037;-75
2023/07/07 11:48:58;;;;;;;5.70;3.50;;;32.20;35.60;;;;;;4900368;29;20111;-76
2023/07/07 11:51:43;;;;;;;5.47;3.88;;;32.20;35.90;;;;;;4895806;29;20069;-77
2023/07/07 11:54:19;;;;;;;8.52;3.70;;;32.40;34.60;;;;;;4883939;29;20079;-78
2023/07/07 11:57:26;;;;;;;6.30;3.40;;;32.30;35.30;;;;;;4896798;29;20040;-78
2023/07/07 12:00:05;;;;;;;6.70;3.80;;;32.30;35.90;;;;;;4899211;29;20040;-77
2023/07/07 12:02:55;;;;;;;6.72;3.55;;;32.40;35.10;;;;;;4901507;29;20040;-78
2023/07/07 12:05:34;;;;;;;5.95;3.47;;;32.40;35.80;;;;;;4902048;29;20035;-77
2023/07/07 12:08:10;;;;;;;8.75;3.83;;;32.60;35.50;;;;;;4896035;29;20039;-77
2023/07/07 12:10:45;;;;;;;6.40;3.83;;;32.70;35.90;;;;;;4900711;29;20108;-78
2023/07/07 12:13:23;;;;;;;9.57;3.50;;;32.70;35.80;;;;;;4900244;29;20123;-77
2023/07/07 12:15:54;;;;;;;7.30;3.65;;;32.60;35.90;;;;;;4900965;29;20017;-77
2023/07/07 12:18:23;;;;;;;8.10;3.83;;;32.50;35.50;;;;;;4897083;29;20096;-77
2023/07/07 12:21:17;;;;;;;6.82;3.70;;;32.50;36.00;;;;;;4902577;29;20039;-78
2023/07/07 12:24:19;;;;;;;6.00;3.30;;;32.40;36.80;;;;;;4872190;29;20048;-78
2023/07/07 12:26:50;;;;;;;7.10;3.63;;;32.60;36.30;;;;;;4866104;29;20053;-78
2023/07/07 12:29:17;;;;;;;5.93;3.50;;;32.80;36.10;;;;;;4886959;29;20032;-78
2023/07/07 12:31:45;;;;;;;9.50;3.90;;;32.80;35.80;;;;;;4901619;29;20418;-78
2023/07/07 12:34:42;;;;;;;7.13;3.63;;;32.30;35.50;;;;;;4902012;29;20024;-78
2023/07/07 12:37:17;;;;;;;5.80;3.63;;;31.80;36.20;;;;;;4890051;29;20048;-77
2023/07/07 12:39:55;;;;;;;8.30;3.72;;;31.90;36.00;;;;;;4884135;29;20032;-78
2023/07/07 12:42:24;;;;;;;7.78;4.20;;;31.90;36.20;;;;;;4889858;29;21206;-78
2023/07/07 12:44:50;;;;;;;7.03;3.78;;;31.80;36.40;;;;;;4897373;29;20039;-78
2023/07/07 12:47:31;;;;;;;5.68;3.53;;;31.60;36.30;;;;;;4896370;29;20028;-77
2023/07/07 12:50:00;;;;;;;8.45;4.18;;;31.40;37.20;;;;;;4896583;29;20128;-79
2023/07/07 12:52:30;;;;;;;6.60;4.15;;;31.40;37.50;;;;;;4898913;29;20029;-78
2023/07/07 12:55:20;;;;;;;5.90;3.95;;;31.40;37.80;;;;;;4894750;29;20527;-78
2023/07/07 12:58:07;;;;;;;7.50;3.40;;;31.70;37.00;;;;;;4896005;29;20036;-77
2023/07/07 13:00:39;;;;;;;8.73;3.88;;;32.00;37.70;;;;;;4891937;29;20199;-78
2023/07/07 13:03:18;;;;;;;5.82;3.60;;;31.90;37.20;;;;;;4905261;29;20032;-78
2023/07/07 13:05:49;;;;;;;6.22;3.90;;;31.80;37.40;;;;;;4878794;29;20156;-78
2023/07/07 13:08:38;;;;;;;7.03;4.03;;;31.80;37.90;;;;;;4893122;29;20028;-78
2023/07/07 13:11:07;;;;;;;6.45;3.75;;;31.70;38.70;;;;;;4892586;29;20032;-78
2023/07/07 13:13:37;;;;;;;8.27;3.88;;;31.80;37.50;;;;;;4882358;29;20120;-78
2023/07/07 13:16:04;;;;;;;9.07;4.63;;;32.00;38.70;;;;;;4882963;29;20085;-78
2023/07/07 13:18:30;;;;;;;6.35;3.58;;;32.10;37.80;;;;;;4882830;29;20041;-78
2023/07/07 13:20:59;;;;;;;8.27;3.90;;;32.20;37.80;;;;;;4882409;29;20032;-78
2023/07/07 13:23:39;;;;;;;5.63;3.88;;;32.20;37.50;;;;;;4901262;29;20057;-78
2023/07/07 13:26:05;;;;;;;6.20;3.47;;;32.50;37.30;;;;;;4900907;29;20083;-78
2023/07/07 13:28:30;;;;;;;7.25;4.07;;;32.60;36.10;;;;;;4885870;29;20108;-81
2023/07/07 13:30:58;;;;;;;6.90;3.50;;;32.30;36.40;;;;;;4881668;29;20097;-78
2023/07/07 13:33:27;;;;;;;8.65;4.13;;;32.20;36.60;;;;;;4884141;29;20029;-78
2023/07/07 13:35:57;;;;;;;6.72;3.83;;;31.80;36.50;;;;;;4900933;29;20031;-78
2023/07/07 13:38:27;;;;;;;6.07;3.78;;;31.60;37.00;;;;;;4891658;29;20073;-78
2023/07/07 13:40:53;;;;;;;9.40;4.03;;;31.40;38.50;;;;;;4898260;29;20446;-78
2023/07/07 13:43:25;;;;;;;7.10;3.92;;;31.50;37.30;;;;;;4885587;29;20052;-78
2023/07/07 13:46:01;;;;;;;6.43;3.95;;;31.80;37.00;;;;;;4886526;29;20032;-78
2023/07/07 13:48:31;;;;;;;6.43;3.90;;;32.30;37.30;;;;;;4899503;29;20874;-78
2023/07/07 13:50:57;;;;;;;8.02;4.32;;;32.40;36.10;;;;;;4881897;29;20089;-78
2023/07/07 13:53:23;;;;;;;7.07;3.63;;;32.60;36.20;;;;;;4882148;29;20029;-78
2023/07/07 13:55:51;;;;;;;10.50;4.07;;;32.70;37.80;;;;;;4882182;29;20025;-78
2023/07/07 13:58:22;;;;;;;7.85;4.20;;;32.80;37.40;;;;;;4887492;29;20033;-78
2023/07/07 14:01:33;;;;;;;5.90;4.03;;;32.80;37.10;;;;;;4880880;29;20041;-78
2023/07/07 14:04:01;;;;;;;7.30;3.70;;;32.80;37.10;;;;;;4900530;29;20029;-79
2023/07/07 14:06:27;;;;;;;6.75;3.90;;;32.60;36.10;;;;;;4900445;29;20055;-78
2023/07/07 14:08:53;;;;;;;6.15;3.58;;;32.40;36.80;;;;;;4878463;29;20025;-78
2023/07/07 14:11:25;;;;;;;8.85;4.10;;;32.50;36.40;;;;;;4892462;29;20488;-78
2023/07/07 14:13:57;;;;;;;6.63;3.85;;;32.50;35.60;;;;;;4887260;29;20033;-78
2023/07/07 14:16:32;;;;;;;6.40;3.95;;;32.70;37.50;;;;;;4881552;29;20036;-78
2023/07/07 14:19:21;;;;;;;5.82;4.03;;;32.90;36.00;;;;;;4888501;29;20113;-78
2023/07/07 14:21:47;;;;;;;6.68;3.90;;;33.00;36.70;;;;;;4881585;29;20024;-78
2023/07/07 14:24:16;;;;;;;6.53;3.65;;;33.00;36.30;;;;;;4886478;29;20032;-78
2023/07/07 14:26:43;;;;;;;6.05;3.55;;;33.00;35.60;;;;;;4881633;29;20052;-78
2023/07/07 14:29:17;;;;;;;7.07;3.97;;;32.80;36.80;;;;;;4881621;29;20034;-78
2023/07/07 14:31:42;;;;;;;8.32;4.07;;;32.80;37.40;;;;;;4887159;29;20507;-78
2023/07/07 14:34:13;;;;;;;6.25;4.28;;;32.60;36.40;;;;;;4891394;29;20029;-78
2023/07/07 14:36:44;;;;;;;9.93;4.63;;;32.40;37.20;;;;;;4893185;29;20033;-78
2023/07/07 14:39:29;;;;;;;7.03;3.78;;;32.40;38.20;;;;;;4881626;29;20572;-77
2023/07/07 14:41:57;;;;;;;7.38;3.92;;;32.70;37.10;;;;;;4896752;29;20039;-78
2023/07/07 14:44:39;;;;;;;8.75;4.25;;;32.60;38.20;;;;;;4900324;29;20111;-78
2023/07/07 14:47:09;;;;;;;6.35;3.78;;;32.90;37.70;;;;;;4882664;29;20621;-78
2023/07/07 14:49:34;;;;;;;7.20;4.22;;;33.10;38.80;;;;;;4881413;29;20441;-78
2023/07/07 14:52:03;;;;;;;7.38;4.28;;;33.40;37.20;;;;;;4866374;29;20017;-78
2023/07/07 14:54:28;;;;;;;6.93;3.90;;;33.40;35.90;;;;;;4885059;29;20025;-78
2023/07/07 14:57:01;;;;;;;8.68;4.57;;;33.30;35.90;;;;;;4881302;29;20029;-78
2023/07/07 14:59:35;;;;;;;7.38;3.78;;;33.20;36.10;;;;;;4886513;29;20115;-78
2023/07/07 15:02:32;;;;;;;7.18;4.22;;;32.90;35.30;;;;;;4895289;29;20396;-83
2023/07/07 15:05:25;;;;;;;8.93;4.60;;;32.80;36.20;;;;;;4868204;29;20037;-83
2023/07/07 15:07:51;;;;;;;6.53;3.85;;;32.70;37.90;;;;;;4897399;29;20240;-84
2023/07/07 15:10:18;;;;;;;7.68;4.03;;;32.50;36.30;;;;;;4896456;29;20108;-83
2023/07/07 15:12:47;;;;;;;9.05;4.25;;;32.30;37.20;;;;;;4899937;29;20025;-84
2023/07/07 15:15:13;;;;;;;6.38;4.10;;;32.40;36.70;;;;;;4898465;29;20032;-83
2023/07/07 15:17:39;;;;;;;6.90;4.15;;;32.30;38.50;;;;;;4897144;29;20183;-83
2023/07/07 15:20:14;;;;;;;6.85;4.07;;;32.00;38.20;;;;;;4900163;29;20040;-83
2023/07/07 15:22:39;;;;;;;7.82;4.30;;;31.90;37.90;;;;;;4897284;29;20021;-83
2023/07/07 15:25:05;;;;;;;7.32;4.20;;;31.80;38.60;;;;;;4897932;29;20063;-82
2023/07/07 15:27:31;;;;;;;7.40;4.18;;;31.70;38.00;;;;;;4897438;29;20049;-83
2023/07/07 15:29:57;;;;;;;7.70;4.07;;;31.60;37.90;;;;;;4891135;29;20754;-82
2023/07/07 15:32:22;;;;;;;7.35;4.20;;;31.60;38.40;;;;;;4878990;29;20052;-83
2023/07/07 15:34:48;;;;;;;7.28;4.20;;;31.50;38.40;;;;;;4887504;29;20058;-84
2023/07/07 15:37:14;;;;;;;6.72;4.05;;;31.50;38.80;;;;;;4882293;29;20036;-84
2023/07/07 15:39:39;;;;;;;7.43;4.32;;;31.70;39.30;;;;;;4890346;29;20040;-87
2023/07/07 15:42:14;;;;;;;6.57;3.90;;;31.80;38.80;;;;;;4892183;29;20041;-83
2023/07/07 15:44:41;;;;;;;8.75;4.43;;;31.60;38.20;;;;;;4876675;29;20168;-85
2023/07/07 15:47:22;;;;;;;7.07;4.47;;;31.40;38.30;;;;;;4876998;29;20088;-83
2023/07/07 15:49:48;;;;;;;7.07;4.35;;;31.30;38.50;;;;;;4894238;29;20084;-83
2023/07/07 15:52:16;;;;;;;9.20;4.30;;;31.40;38.90;;;;;;4897558;29;20056;-84
2023/07/07 15:54:42;;;;;;;10.73;3.92;;;31.40;38.90;;;;;;4883358;29;20104;-85
2023/07/07 15:57:10;;;;;;;10.30;4.50;;;31.70;38.40;;;;;;4883466;29;20033;-82
2023/07/07 15:59:36;;;;;;;6.90;4.28;;;31.90;38.50;;;;;;4882523;29;20040;-85
2023/07/07 16:02:14;;;;;;;7.82;4.40;;;31.80;38.40;;;;;;4885262;29;20024;-84
2023/07/07 16:04:40;;;;;;;8.75;4.30;;;31.90;38.50;;;;;;4892420;29;20395;-84
2023/07/07 16:07:13;;;;;;;7.90;4.30;;;32.00;37.80;;;;;;4868486;29;20889;-83
2023/07/07 16:09:38;;;;;;;8.90;4.57;;;32.00;38.90;;;;;;4886149;29;20025;-83
2023/07/07 16:12:13;;;;;;;8.40;4.53;;;31.80;38.90;;;;;;4885834;29;20421;-83
2023/07/07 16:14:38;;;;;;;7.70;4.28;;;31.80;38.30;;;;;;4867379;29;20524;-84
2023/07/07 16:17:18;;;;;;;7.20;4.53;;;31.70;38.90;;;;;;4882728;29;20056;-84
2023/07/07 16:19:44;;;;;;;8.43;4.90;;;31.60;39.60;;;;;;4867736;29;20044;-83
2023/07/07 16:22:15;;;;;;;8.43;4.43;;;31.80;39.40;;;;;;4873327;29;20368;-84
2023/07/07 16:24:41;;;;;;;9.55;4.32;;;31.80;39.10;;;;;;4883547;29;20064;-78
2023/07/07 16:27:17;;;;;;;9.20;4.50;;;31.90;38.70;;;;;;4889479;29;20064;-81
2023/07/07 16:29:44;;;;;;;8.02;4.60;;;31.90;38.90;;;;;;4897481;29;20041;-81
2023/07/07 16:32:11;;;;;;;5.88;4.30;;;32.00;38.20;;;;;;4894526;29;20108;-81
2023/07/07 16:34:37;;;;;;;9.90;4.38;;;32.00;38.70;;;;;;4900205;29;20035;-82
2023/07/07 16:37:03;;;;;;;9.00;4.68;;;31.90;39.20;;;;;;4899950;29;20039;-81
2023/07/07 16:39:29;;;;;;;8.45;4.40;;;31.80;39.40;;;;;;4897511;29;20025;-81
2023/07/07 16:41:55;;;;;;;10.52;4.38;;;31.60;39.00;;;;;;4899535;29;20117;-81
2023/07/07 16:44:21;;;;;;;7.78;6.82;;;31.50;39.80;;;;;;4900377;29;20059;-82
2023/07/07 16:46:47;;;;;;;7.78;4.45;;;31.40;39.20;;;;;;4882296;29;20590;-81
2023/07/07 16:49:15;;;;;;;14.75;9.68;;;31.40;39.50;;;;;;4882152;29;20025;-81
2023/07/07 16:51:42;;;;;;;8.27;3.45;;;31.70;40.40;;;;;;4897745;29;20053;-82
2023/07/07 16:54:08;;;;;;;8.35;4.53;;;31.80;39.00;;;;;;4901640;29;20021;-82
2023/07/07 16:56:37;;;;;;;7.68;4.40;;;31.80;39.50;;;;;;4900212;29;20033;-82
2023/07/07 16:59:04;;;;;;;5.80;4.10;;;31.80;39.50;;;;;;4898891;29;20028;-81
2023/07/07 17:01:31;;;;;;;8.65;4.10;;;31.70;39.00;;;;;;4901616;29;20403;-81
2023/07/07 17:03:57;;;;;;;6.63;3.95;;;31.50;39.40;;;;;;4900418;29;20530;-90
2023/07/07 17:06:26;;;;;;;10.38;5.32;;;31.40;39.70;;;;;;4893490;29;20055;-89
2023/07/07 17:08:56;;;;;;;9.90;4.53;;;31.40;39.80;;;;;;4884091;29;20028;-88
2023/07/07 17:11:26;;;;;;;7.63;4.13;;;31.40;39.70;;;;;;4897404;29;20717;-91
2023/07/07 17:13:53;;;;;;;8.52;4.15;;;31.50;39.70;;;;;;4901308;29;20392;-81
2023/07/07 17:16:27;;;;;;;10.02;4.45;;;31.50;39.60;;;;;;4883926;29;20028;-82
2023/07/07 17:18:58;;;;;;;8.15;4.40;;;31.40;39.90;;;;;;4884033;29;20055;-82
2023/07/07 17:21:25;;;;;;;9.98;4.90;;;31.30;39.90;;;;;;4896551;29;20464;-81
2023/07/07 17:23:51;;;;;;;10.95;4.63;;;31.30;40.50;;;;;;4883900;29;20020;-82
2023/07/07 17:26:25;;;;;;;9.32;4.47;;;31.30;40.20;;;;;;4879220;29;20036;-82
2023/07/07 17:28:50;;;;;;;7.63;4.40;;;31.30;40.60;;;;;;4881492;29;20024;-81
2023/07/07 17:31:22;;;;;;;7.13;4.50;;;31.20;40.40;;;;;;4896951;29;20452;-81
2023/07/07 17:33:54;;;;;;;7.73;4.30;;;31.10;40.30;;;;;;4848267;29;20021;-84
2023/07/07 17:36:30;;;;;;;8.07;4.10;;;30.90;40.70;;;;;;4897442;29;20277;-81
2023/07/07 17:38:59;;;;;;;9.73;4.25;;;30.80;41.20;;;;;;4898833;29;20479;-81